sensor_id;sensor_type;location;lat;lon;timestamp;pressure;altitude;pressure_sealevel;temperature;humidity
70690;BME280;58267;51.156;17.044;2023-02-20T00:00:59;100955.79;;;3.56;40.55
70690;BME280;58267;51.156;17.044;2023-02-20T00:03:24;100952.35;;;4.27;39.55
70690;BME280;58267;51.156;17.044;2023-02-20T00:05:50;100949.43;;;4.13;39.74
70690;BME280;58267;51.156;17.044;2023-02-20T00:08:15;100945.69;;;3.62;40.11
70690;BME280;58267;51.156;17.044;2023-02-20T00:10:40;100944.01;;;4.27;39.38
70690;BME280;58267;51.156;17.044;2023-02-20T00:13:06;100945.30;;;3.52;40.04
70690;BME280;58267;51.156;17.044;2023-02-20T00:15:32;100940.57;;;4.33;39.86
70690;BME280;58267;51.156;17.044;2023-02-20T00:17:57;100934.87;;;4.16;39.59
70690;BME280;58267;51.156;17.044;2023-02-20T00:20:24;100932.50;;;3.89;39.72
70690;BME280;58267;51.156;17.044;2023-02-20T00:22:49;100929.95;;;4.50;38.99
70690;BME280;58267;51.156;17.044;2023-02-20T00:25:15;100924.79;;;4.62;38.97
70690;BME280;58267;51.156;17.044;2023-02-20T00:27:39;100918.11;;;4.61;38.87
70690;BME280;58267;51.156;17.044;2023-02-20T00:30:06;100913.29;;;4.56;39.01
70690;BME280;58267;51.156;17.044;2023-02-20T00:32:30;100907.67;;;4.90;38.85
70690;BME280;58267;51.156;17.044;2023-02-20T00:34:56;100907.22;;;4.62;38.88
70690;BME280;58267;51.156;17.044;2023-02-20T00:37:21;100905.54;;;4.76;38.71
70690;BME280;58267;51.156;17.044;2023-02-20T00:39:46;100902.56;;;4.87;38.71
70690;BME280;58267;51.156;17.044;2023-02-20T00:42:11;100899.05;;;5.00;38.46
70690;BME280;58267;51.156;17.044;2023-02-20T00:44:37;100897.60;;;4.81;38.72
70690;BME280;58267;51.156;17.044;2023-02-20T00:47:03;100900.98;;;5.14;38.35
70690;BME280;58267;51.156;17.044;2023-02-20T00:49:28;100895.93;;;4.41;39.50
70690;BME280;58267;51.156;17.044;2023-02-20T00:51:54;100898.38;;;4.22;39.59
70690;BME280;58267;51.156;17.044;2023-02-20T00:54:19;100901.17;;;4.22;39.64
70690;BME280;58267;51.156;17.044;2023-02-20T00:56:44;100898.64;;;4.60;39.44
70690;BME280;58267;51.156;17.044;2023-02-20T00:59:10;100897.90;;;4.14;39.92
70690;BME280;58267;51.156;17.044;2023-02-20T01:01:35;100899.79;;;4.25;39.99
70690;BME280;58267;51.156;17.044;2023-02-20T01:04:00;100896.59;;;4.15;39.77
70690;BME280;58267;51.156;17.044;2023-02-20T01:06:25;100897.77;;;4.30;39.79
70690;BME280;58267;51.156;17.044;2023-02-20T01:08:51;100896.57;;;3.87;40.42
70690;BME280;58267;51.156;17.044;2023-02-20T01:11:20;100900.10;;;4.48;39.75
70690;BME280;58267;51.156;17.044;2023-02-20T01:13:45;100898.10;;;3.54;40.79
70690;BME280;58267;51.156;17.044;2023-02-20T01:16:10;100893.39;;;3.60;40.98
70690;BME280;58267;51.156;17.044;2023-02-20T01:18:36;100893.16;;;3.43;40.98
70690;BME280;58267;51.156;17.044;2023-02-20T01:21:02;100893.00;;;3.48;41.18
70690;BME280;58267;51.156;17.044;2023-02-20T01:23:27;100887.02;;;3.63;40.87
70690;BME280;58267;51.156;17.044;2023-02-20T01:25:52;100883.32;;;4.06;40.30
70690;BME280;58267;51.156;17.044;2023-02-20T01:28:19;100881.05;;;3.84;40.51
70690;BME280;58267;51.156;17.044;2023-02-20T01:30:43;100880.19;;;3.84;40.63
70690;BME280;58267;51.156;17.044;2023-02-20T01:33:09;100872.09;;;4.20;39.93
70690;BME280;58267;51.156;17.044;2023-02-20T01:35:35;100867.54;;;4.55;39.80
70690;BME280;58267;51.156;17.044;2023-02-20T01:38:00;100860.96;;;4.87;39.37
70690;BME280;58267;51.156;17.044;2023-02-20T01:40:27;100857.33;;;5.12;39.15
70690;BME280;58267;51.156;17.044;2023-02-20T01:42:51;100856.34;;;4.99;38.98
70690;BME280;58267;51.156;17.044;2023-02-20T01:45:24;100849.31;;;4.48;39.62
70690;BME280;58267;51.156;17.044;2023-02-20T01:47:42;100842.56;;;4.53;39.53
70690;BME280;58267;51.156;17.044;2023-02-20T01:50:13;100841.51;;;4.34;39.65
70690;BME280;58267;51.156;17.044;2023-02-20T01:52:35;100838.69;;;4.23;40.16
70690;BME280;58267;51.156;17.044;2023-02-20T01:55:01;100841.96;;;4.68;39.51
70690;BME280;58267;51.156;17.044;2023-02-20T01:57:26;100840.71;;;3.89;40.53
70690;BME280;58267;51.156;17.044;2023-02-20T01:59:50;100841.98;;;4.04;40.81
70690;BME280;58267;51.156;17.044;2023-02-20T02:02:14;100837.45;;;4.46;39.96
70690;BME280;58267;51.156;17.044;2023-02-20T02:04:41;100830.70;;;4.83;39.46
70690;BME280;58267;51.156;17.044;2023-02-20T02:07:05;100828.06;;;4.97;39.34
70690;BME280;58267;51.156;17.044;2023-02-20T02:09:36;100824.55;;;4.51;39.67
70690;BME280;58267;51.156;17.044;2023-02-20T02:11:56;100822.05;;;4.91;39.29
70690;BME280;58267;51.156;17.044;2023-02-20T02:14:21;100810.97;;;5.12;38.94
70690;BME280;58267;51.156;17.044;2023-02-20T02:16:55;100807.46;;;5.02;38.98
70690;BME280;58267;51.156;17.044;2023-02-20T02:19:22;100804.30;;;5.32;38.55
70690;BME280;58267;51.156;17.044;2023-02-20T02:24:19;100807.02;;;4.53;39.70
70690;BME280;58267;51.156;17.044;2023-02-20T02:26:40;100800.75;;;4.51;40.02
70690;BME280;58267;51.156;17.044;2023-02-20T02:31:32;100791.10;;;4.53;39.69
70690;BME280;58267;51.156;17.044;2023-02-20T02:33:55;100790.22;;;4.75;39.40
70690;BME280;58267;51.156;17.044;2023-02-20T02:36:18;100794.43;;;4.56;39.73
70690;BME280;58267;51.156;17.044;2023-02-20T02:38:40;100790.93;;;4.52;39.69
70690;BME280;58267;51.156;17.044;2023-02-20T02:41:05;100785.07;;;4.49;39.89
70690;BME280;58267;51.156;17.044;2023-02-20T02:43:29;100769.69;;;4.19;40.30
70690;BME280;58267;51.156;17.044;2023-02-20T02:45:52;100768.48;;;3.75;40.92
70690;BME280;58267;51.156;17.044;2023-02-20T02:48:20;100777.71;;;3.67;41.20
70690;BME280;58267;51.156;17.044;2023-02-20T02:50:47;100783.97;;;4.04;41.11
70690;BME280;58267;51.156;17.044;2023-02-20T02:53:08;100783.78;;;3.80;41.04
70690;BME280;58267;51.156;17.044;2023-02-20T02:55:32;100784.12;;;3.98;41.18
70690;BME280;58267;51.156;17.044;2023-02-20T02:57:57;100777.31;;;4.02;41.05
70690;BME280;58267;51.156;17.044;2023-02-20T03:00:25;100771.24;;;4.17;40.98
70690;BME280;58267;51.156;17.044;2023-02-20T03:02:54;100766.01;;;4.08;41.00
70690;BME280;58267;51.156;17.044;2023-02-20T03:05:16;100763.68;;;3.97;40.80
70690;BME280;58267;51.156;17.044;2023-02-20T03:07:39;100760.68;;;4.15;40.54
70690;BME280;58267;51.156;17.044;2023-02-20T03:10:07;100749.13;;;3.70;41.20
70690;BME280;58267;51.156;17.044;2023-02-20T03:12:30;100748.12;;;4.39;40.22
70690;BME280;58267;51.156;17.044;2023-02-20T03:14:59;100745.34;;;4.34;40.22
70690;BME280;58267;51.156;17.044;2023-02-20T03:17:27;100748.99;;;3.79;40.90
70690;BME280;58267;51.156;17.044;2023-02-20T03:19:48;100748.55;;;3.84;40.94
70690;BME280;58267;51.156;17.044;2023-02-20T03:22:14;100748.14;;;3.87;40.91
70690;BME280;58267;51.156;17.044;2023-02-20T03:24:37;100747.87;;;4.32;40.55
70690;BME280;58267;51.156;17.044;2023-02-20T03:27:04;100750.33;;;4.06;40.66
70690;BME280;58267;51.156;17.044;2023-02-20T03:29:33;100752.95;;;3.66;41.02
70690;BME280;58267;51.156;17.044;2023-02-20T03:31:59;100758.80;;;4.23;40.24
70690;BME280;58267;51.156;17.044;2023-02-20T03:34:23;100760.21;;;4.76;39.59
70690;BME280;58267;51.156;17.044;2023-02-20T03:36:48;100760.78;;;4.68;39.81
70690;BME280;58267;51.156;17.044;2023-02-20T03:39:16;100760.24;;;4.72;39.53
70690;BME280;58267;51.156;17.044;2023-02-20T03:41:37;100754.14;;;4.84;39.30
70690;BME280;58267;51.156;17.044;2023-02-20T03:44:03;100743.67;;;5.25;38.83
70690;BME280;58267;51.156;17.044;2023-02-20T03:46:29;100746.13;;;4.80;39.24
70690;BME280;58267;51.156;17.044;2023-02-20T03:48:55;100738.02;;;4.94;39.17
70690;BME280;58267;51.156;17.044;2023-02-20T03:51:18;100738.44;;;4.51;39.52
70690;BME280;58267;51.156;17.044;2023-02-20T03:53:44;100736.75;;;4.28;39.45
70690;BME280;58267;51.156;17.044;2023-02-20T03:56:11;100737.59;;;4.65;39.29
70690;BME280;58267;51.156;17.044;2023-02-20T03:58:36;100740.14;;;5.02;39.14
70690;BME280;58267;51.156;17.044;2023-02-20T04:01:02;100732.56;;;4.86;39.36
70690;BME280;58267;51.156;17.044;2023-02-20T04:03:27;100724.49;;;4.78;39.41
70690;BME280;58267;51.156;17.044;2023-02-20T04:05:53;100725.65;;;4.60;39.65
70690;BME280;58267;51.156;17.044;2023-02-20T04:08:17;100720.80;;;4.69;39.51
70690;BME280;58267;51.156;17.044;2023-02-20T04:10:43;100713.29;;;4.39;39.24
70690;BME280;58267;51.156;17.044;2023-02-20T04:13:05;100700.11;;;4.54;39.72
70690;BME280;58267;51.156;17.044;2023-02-20T04:15:31;100691.82;;;4.58;39.62
70690;BME280;58267;51.156;17.044;2023-02-20T04:17:59;100694.00;;;4.93;39.14
70690;BME280;58267;51.156;17.044;2023-02-20T04:20:21;100690.85;;;4.90;39.30
70690;BME280;58267;51.156;17.044;2023-02-20T04:22:48;100692.56;;;4.52;39.24
70690;BME280;58267;51.156;17.044;2023-02-20T04:25:18;100692.17;;;4.54;39.10
70690;BME280;58267;51.156;17.044;2023-02-20T04:27:39;100696.12;;;4.23;39.19
70690;BME280;58267;51.156;17.044;2023-02-20T04:30:04;100700.99;;;5.05;38.52
70690;BME280;58267;51.156;17.044;2023-02-20T04:32:29;100703.43;;;4.81;38.62
70690;BME280;58267;51.156;17.044;2023-02-20T04:34:54;100697.89;;;4.53;38.99
70690;BME280;58267;51.156;17.044;2023-02-20T04:37:20;100696.09;;;4.82;38.71
70690;BME280;58267;51.156;17.044;2023-02-20T04:39:45;100698.61;;;4.94;38.58
70690;BME280;58267;51.156;17.044;2023-02-20T04:42:10;100693.79;;;5.16;38.36
70690;BME280;58267;51.156;17.044;2023-02-20T04:44:35;100688.87;;;5.05;38.27
70690;BME280;58267;51.156;17.044;2023-02-20T04:47:03;100685.68;;;5.12;38.35
70690;BME280;58267;51.156;17.044;2023-02-20T04:49:27;100672.32;;;5.16;38.37
70690;BME280;58267;51.156;17.044;2023-02-20T04:51:51;100674.77;;;4.74;38.51
70690;BME280;58267;51.156;17.044;2023-02-20T04:54:17;100660.03;;;4.90;38.23
70690;BME280;58267;51.156;17.044;2023-02-20T04:56:42;100667.90;;;4.81;38.07
70690;BME280;58267;51.156;17.044;2023-02-20T04:59:08;100666.07;;;5.30;37.91
70690;BME280;58267;51.156;17.044;2023-02-20T05:01:33;100671.33;;;4.59;38.44
70690;BME280;58267;51.156;17.044;2023-02-20T05:03:58;100663.13;;;5.02;38.00
70690;BME280;58267;51.156;17.044;2023-02-20T05:06:24;100654.94;;;4.83;38.05
70690;BME280;58267;51.156;17.044;2023-02-20T05:08:49;100652.15;;;4.79;38.31
70690;BME280;58267;51.156;17.044;2023-02-20T05:11:14;100654.56;;;5.24;38.37
70690;BME280;58267;51.156;17.044;2023-02-20T05:13:40;100653.89;;;5.26;37.99
70690;BME280;58267;51.156;17.044;2023-02-20T05:16:06;100657.87;;;5.31;37.94
70690;BME280;58267;51.156;17.044;2023-02-20T05:18:31;100659.13;;;5.08;37.84
70690;BME280;58267;51.156;17.044;2023-02-20T05:20:57;100654.30;;;5.22;37.88
70690;BME280;58267;51.156;17.044;2023-02-20T05:23:22;100650.42;;;5.58;37.35
70690;BME280;58267;51.156;17.044;2023-02-20T05:25:47;100645.55;;;4.95;38.23
70690;BME280;58267;51.156;17.044;2023-02-20T05:28:12;100641.87;;;5.34;37.87
70690;BME280;58267;51.156;17.044;2023-02-20T05:30:37;100638.90;;;5.41;37.86
70690;BME280;58267;51.156;17.044;2023-02-20T05:33:03;100635.35;;;5.65;37.65
70690;BME280;58267;51.156;17.044;2023-02-20T05:35:29;100634.19;;;5.41;37.88
70690;BME280;58267;51.156;17.044;2023-02-20T05:37:54;100637.88;;;5.75;37.82
70690;BME280;58267;51.156;17.044;2023-02-20T05:40:19;100641.30;;;5.46;38.07
70690;BME280;58267;51.156;17.044;2023-02-20T05:42:45;100639.87;;;5.44;38.34
70690;BME280;58267;51.156;17.044;2023-02-20T05:45:10;100637.92;;;5.14;38.65
70690;BME280;58267;51.156;17.044;2023-02-20T05:47:36;100639.74;;;5.06;38.83
70690;BME280;58267;51.156;17.044;2023-02-20T05:50:01;100636.34;;;6.02;38.10
70690;BME280;58267;51.156;17.044;2023-02-20T05:52:26;100635.23;;;5.02;39.06
70690;BME280;58267;51.156;17.044;2023-02-20T05:54:52;100630.12;;;4.85;39.52
70690;BME280;58267;51.156;17.044;2023-02-20T05:57:17;100636.51;;;5.57;39.25
70690;BME280;58267;51.156;17.044;2023-02-20T05:59:42;100636.00;;;5.48;39.19
70690;BME280;58267;51.156;17.044;2023-02-20T06:02:08;100632.70;;;5.31;39.50
70690;BME280;58267;51.156;17.044;2023-02-20T06:04:33;100623.41;;;5.34;39.68
70690;BME280;58267;51.156;17.044;2023-02-20T06:06:58;100619.23;;;5.38;39.82
70690;BME280;58267;51.156;17.044;2023-02-20T06:09:23;100618.59;;;5.75;39.37
70690;BME280;58267;51.156;17.044;2023-02-20T06:11:50;100621.14;;;5.88;39.37
70690;BME280;58267;51.156;17.044;2023-02-20T06:14:15;100625.93;;;5.90;39.52
70690;BME280;58267;51.156;17.044;2023-02-20T06:16:39;100624.87;;;5.25;40.78
70690;BME280;58267;51.156;17.044;2023-02-20T06:19:04;100621.17;;;5.38;40.85
70690;BME280;58267;51.156;17.044;2023-02-20T06:21:30;100616.81;;;5.68;40.59
70690;BME280;58267;51.156;17.044;2023-02-20T06:23:55;100619.54;;;5.41;41.01
70690;BME280;58267;51.156;17.044;2023-02-20T06:26:21;100620.14;;;5.02;41.81
70690;BME280;58267;51.156;17.044;2023-02-20T06:28:46;100618.88;;;5.08;41.73
70690;BME280;58267;51.156;17.044;2023-02-20T06:31:11;100617.13;;;5.86;40.90
70690;BME280;58267;51.156;17.044;2023-02-20T06:33:37;100614.41;;;6.06;40.72
70690;BME280;58267;51.156;17.044;2023-02-20T06:36:02;100601.36;;;6.24;40.59
70690;BME280;58267;51.156;17.044;2023-02-20T06:38:28;100597.22;;;6.07;41.09
70690;BME280;58267;51.156;17.044;2023-02-20T06:40:53;100600.98;;;5.78;41.73
70690;BME280;58267;51.156;17.044;2023-02-20T06:43:19;100596.86;;;5.50;42.30
70690;BME280;58267;51.156;17.044;2023-02-20T06:45:45;100596.41;;;5.93;41.48
70690;BME280;58267;51.156;17.044;2023-02-20T06:48:10;100600.23;;;5.92;41.85
70690;BME280;58267;51.156;17.044;2023-02-20T06:50:35;100594.03;;;5.97;42.12
70690;BME280;58267;51.156;17.044;2023-02-20T06:53:00;100578.92;;;6.22;41.73
70690;BME280;58267;51.156;17.044;2023-02-20T06:55:26;100575.76;;;6.19;41.86
70690;BME280;58267;51.156;17.044;2023-02-20T06:57:51;100584.44;;;5.65;42.72
70690;BME280;58267;51.156;17.044;2023-02-20T07:00:17;100582.81;;;6.36;41.74
70690;BME280;58267;51.156;17.044;2023-02-20T07:02:41;100585.98;;;5.96;42.02
70690;BME280;58267;51.156;17.044;2023-02-20T07:05:07;100582.02;;;5.72;42.43
70690;BME280;58267;51.156;17.044;2023-02-20T07:07:32;100581.22;;;5.23;43.60
70690;BME280;58267;51.156;17.044;2023-02-20T07:09:57;100576.02;;;6.06;42.09
70690;BME280;58267;51.156;17.044;2023-02-20T07:12:22;100566.43;;;6.51;41.59
70690;BME280;58267;51.156;17.044;2023-02-20T07:14:49;100567.70;;;6.24;41.52
70690;BME280;58267;51.156;17.044;2023-02-20T07:17:13;100566.10;;;6.45;41.31
70690;BME280;58267;51.156;17.044;2023-02-20T07:19:39;100563.92;;;6.65;41.16
70690;BME280;58267;51.156;17.044;2023-02-20T07:22:04;100559.70;;;6.45;41.43
70690;BME280;58267;51.156;17.044;2023-02-20T07:24:31;100558.31;;;6.38;41.61
70690;BME280;58267;51.156;17.044;2023-02-20T07:26:56;100550.39;;;6.37;41.52
70690;BME280;58267;51.156;17.044;2023-02-20T07:29:27;100543.66;;;6.25;41.86
70690;BME280;58267;51.156;17.044;2023-02-20T07:31:48;100539.25;;;6.24;41.94
70690;BME280;58267;51.156;17.044;2023-02-20T07:34:13;100539.18;;;6.05;42.02
70690;BME280;58267;51.156;17.044;2023-02-20T07:36:40;100524.64;;;5.94;41.98
70690;BME280;58267;51.156;17.044;2023-02-20T07:39:05;100514.14;;;6.68;41.39
70690;BME280;58267;51.156;17.044;2023-02-20T07:41:31;100510.39;;;5.77;43.28
70690;BME280;58267;51.156;17.044;2023-02-20T07:43:56;100498.35;;;6.26;42.13
70690;BME280;58267;51.156;17.044;2023-02-20T07:46:21;100500.93;;;6.05;43.08
70690;BME280;58267;51.156;17.044;2023-02-20T07:48:47;100494.34;;;5.77;43.66
70690;BME280;58267;51.156;17.044;2023-02-20T07:51:12;100492.92;;;5.24;44.11
70690;BME280;58267;51.156;17.044;2023-02-20T07:53:37;100494.34;;;5.71;43.95
70690;BME280;58267;51.156;17.044;2023-02-20T07:56:05;100481.77;;;6.14;43.48
70690;BME280;58267;51.156;17.044;2023-02-20T07:58:28;100486.60;;;4.94;45.92
70690;BME280;58267;51.156;17.044;2023-02-20T08:00:53;100483.41;;;5.55;44.87
70690;BME280;58267;51.156;17.044;2023-02-20T08:03:19;100485.46;;;5.15;45.65
70690;BME280;58267;51.156;17.044;2023-02-20T08:05:45;100484.60;;;5.71;45.53
70690;BME280;58267;51.156;17.044;2023-02-20T08:08:10;100483.38;;;5.66;45.83
70690;BME280;58267;51.156;17.044;2023-02-20T08:10:35;100477.71;;;5.98;45.51
70690;BME280;58267;51.156;17.044;2023-02-20T08:13:01;100472.67;;;6.50;44.70
70690;BME280;58267;51.156;17.044;2023-02-20T08:15:27;100471.01;;;5.70;45.93
70690;BME280;58267;51.156;17.044;2023-02-20T08:17:52;100459.49;;;5.86;45.86
70690;BME280;58267;51.156;17.044;2023-02-20T08:20:19;100458.69;;;5.94;45.57
70690;BME280;58267;51.156;17.044;2023-02-20T08:22:44;100456.56;;;5.71;46.47
70690;BME280;58267;51.156;17.044;2023-02-20T08:25:08;100451.69;;;5.23;47.63
70690;BME280;58267;51.156;17.044;2023-02-20T08:27:33;100448.67;;;5.90;46.02
70690;BME280;58267;51.156;17.044;2023-02-20T08:29:59;100450.25;;;5.70;46.87
70690;BME280;58267;51.156;17.044;2023-02-20T08:32:24;100451.28;;;5.90;46.66
70690;BME280;58267;51.156;17.044;2023-02-20T08:34:49;100442.87;;;5.60;47.25
70690;BME280;58267;51.156;17.044;2023-02-20T08:37:15;100436.42;;;6.78;45.08
70690;BME280;58267;51.156;17.044;2023-02-20T08:39:40;100432.12;;;5.99;46.05
70690;BME280;58267;51.156;17.044;2023-02-20T08:42:06;100443.47;;;6.24;46.14
70690;BME280;58267;51.156;17.044;2023-02-20T08:44:32;100426.80;;;6.06;46.25
70690;BME280;58267;51.156;17.044;2023-02-20T08:46:57;100420.09;;;5.92;47.19
70690;BME280;58267;51.156;17.044;2023-02-20T08:49:22;100422.48;;;6.47;45.57
70690;BME280;58267;51.156;17.044;2023-02-20T08:54:14;100402.28;;;7.15;44.55
70690;BME280;58267;51.156;17.044;2023-02-20T08:56:40;100392.56;;;6.02;47.11
70690;BME280;58267;51.156;17.044;2023-02-20T08:59:04;100391.35;;;6.68;45.74
70690;BME280;58267;51.156;17.044;2023-02-20T09:01:30;100381.26;;;7.57;44.11
70690;BME280;58267;51.156;17.044;2023-02-20T09:03:56;100384.89;;;7.30;44.07
70690;BME280;58267;51.156;17.044;2023-02-20T09:06:21;100364.51;;;8.13;42.50
70690;BME280;58267;51.156;17.044;2023-02-20T09:08:46;100371.99;;;7.26;44.41
70690;BME280;58267;51.156;17.044;2023-02-20T09:11:13;100376.45;;;7.41;44.37
70690;BME280;58267;51.156;17.044;2023-02-20T09:13:41;100388.39;;;6.84;44.35
70690;BME280;58267;51.156;17.044;2023-02-20T09:22:35;100366.47;;;6.15;46.99
70690;BME280;58267;51.156;17.044;2023-02-20T09:25:02;100368.24;;;6.55;46.45
70690;BME280;58267;51.156;17.044;2023-02-20T09:27:27;100366.29;;;7.46;44.91
70690;BME280;58267;51.156;17.044;2023-02-20T09:29:52;100350.99;;;7.04;46.02
70690;BME280;58267;51.156;17.044;2023-02-20T09:32:18;100337.07;;;5.61;48.67
70690;BME280;58267;51.156;17.044;2023-02-20T09:34:44;100331.16;;;5.59;49.06
70690;BME280;58267;51.156;17.044;2023-02-20T09:37:09;100339.27;;;6.78;46.77
70690;BME280;58267;51.156;17.044;2023-02-20T09:39:34;100326.47;;;7.64;45.29
70690;BME280;58267;51.156;17.044;2023-02-20T09:42:07;100333.27;;;6.92;45.60
70690;BME280;58267;51.156;17.044;2023-02-20T09:44:31;100318.00;;;7.22;44.93
70690;BME280;58267;51.156;17.044;2023-02-20T09:46:52;100325.55;;;7.16;44.42
70690;BME280;58267;51.156;17.044;2023-02-20T09:49:19;100319.57;;;6.34;45.64
70690;BME280;58267;51.156;17.044;2023-02-20T09:51:43;100311.84;;;6.97;44.84
70690;BME280;58267;51.156;17.044;2023-02-20T09:54:09;100308.00;;;6.95;44.81
70690;BME280;58267;51.156;17.044;2023-02-20T09:56:34;100325.58;;;6.78;44.79
70690;BME280;58267;51.156;17.044;2023-02-20T09:59:01;100309.91;;;6.97;44.74
70690;BME280;58267;51.156;17.044;2023-02-20T10:01:23;100310.37;;;7.08;44.57
70690;BME280;58267;51.156;17.044;2023-02-20T10:03:53;100311.46;;;7.66;43.04
70690;BME280;58267;51.156;17.044;2023-02-20T10:06:16;100299.04;;;7.41;43.10
70690;BME280;58267;51.156;17.044;2023-02-20T10:08:39;100267.44;;;7.78;43.07
70690;BME280;58267;51.156;17.044;2023-02-20T10:11:05;100249.61;;;7.84;42.32
70690;BME280;58267;51.156;17.044;2023-02-20T10:13:42;100235.47;;;8.10;40.99
70690;BME280;58267;51.156;17.044;2023-02-20T10:16:00;100224.65;;;8.34;41.19
70690;BME280;58267;51.156;17.044;2023-02-20T10:18:29;100222.10;;;8.23;41.62
70690;BME280;58267;51.156;17.044;2023-02-20T10:20:56;100227.17;;;9.13;40.49
70690;BME280;58267;51.156;17.044;2023-02-20T10:23:18;100217.14;;;9.28;40.01
70690;BME280;58267;51.156;17.044;2023-02-20T10:25:40;100213.39;;;9.48;39.49
70690;BME280;58267;51.156;17.044;2023-02-20T10:28:06;100212.92;;;9.40;39.10
70690;BME280;58267;51.156;17.044;2023-02-20T10:30:33;100189.69;;;8.97;39.69
70690;BME280;58267;51.156;17.044;2023-02-20T10:33:00;100180.89;;;9.24;39.78
70690;BME280;58267;51.156;17.044;2023-02-20T10:35:24;100173.39;;;9.38;38.74
70690;BME280;58267;51.156;17.044;2023-02-20T10:37:51;100160.81;;;8.88;39.34
70690;BME280;58267;51.156;17.044;2023-02-20T10:40:17;100150.87;;;9.13;39.03
70690;BME280;58267;51.156;17.044;2023-02-20T10:42:40;100148.16;;;9.14;38.42
70690;BME280;58267;51.156;17.044;2023-02-20T10:45:06;100150.27;;;9.77;37.88
70690;BME280;58267;51.156;17.044;2023-02-20T10:47:31;100150.21;;;9.41;38.16
70690;BME280;58267;51.156;17.044;2023-02-20T10:49:57;100131.52;;;9.75;37.50
70690;BME280;58267;51.156;17.044;2023-02-20T10:52:23;100113.20;;;9.93;37.38
70690;BME280;58267;51.156;17.044;2023-02-20T10:54:46;100113.37;;;10.21;36.81
70690;BME280;58267;51.156;17.044;2023-02-20T10:57:14;100113.33;;;9.50;37.29
70690;BME280;58267;51.156;17.044;2023-02-20T10:59:40;100119.14;;;9.70;37.76
70690;BME280;58267;51.156;17.044;2023-02-20T11:02:04;100120.01;;;10.61;36.75
70690;BME280;58267;51.156;17.044;2023-02-20T11:04:31;100123.98;;;10.00;36.84
70690;BME280;58267;51.156;17.044;2023-02-20T11:06:55;100111.37;;;10.45;36.39
70690;BME280;58267;51.156;17.044;2023-02-20T11:09:18;100098.63;;;10.47;36.35
70690;BME280;58267;51.156;17.044;2023-02-20T11:11:45;100099.70;;;10.80;36.11
70690;BME280;58267;51.156;17.044;2023-02-20T11:14:13;100093.95;;;11.09;36.02
70690;BME280;58267;51.156;17.044;2023-02-20T11:16:40;100088.76;;;10.96;35.62
70690;BME280;58267;51.156;17.044;2023-02-20T11:19:06;100081.92;;;11.14;35.29
70690;BME280;58267;51.156;17.044;2023-02-20T11:21:35;100076.37;;;11.13;35.27
70690;BME280;58267;51.156;17.044;2023-02-20T11:23:51;100085.91;;;11.94;34.50
70690;BME280;58267;51.156;17.044;2023-02-20T11:26:25;100063.35;;;11.26;35.59
70690;BME280;58267;51.156;17.044;2023-02-20T11:28:42;100057.51;;;11.21;35.62
70690;BME280;58267;51.156;17.044;2023-02-20T11:31:08;100062.34;;;10.87;36.19
70690;BME280;58267;51.156;17.044;2023-02-20T11:33:34;100072.68;;;10.61;36.51
70690;BME280;58267;51.156;17.044;2023-02-20T11:36:08;100055.96;;;10.61;36.75
70690;BME280;58267;51.156;17.044;2023-02-20T11:38:30;100063.96;;;9.31;37.34
70690;BME280;58267;51.156;17.044;2023-02-20T11:43:18;100046.80;;;8.45;38.97
70690;BME280;58267;51.156;17.044;2023-02-20T11:45:39;100032.70;;;8.10;39.53
70690;BME280;58267;51.156;17.044;2023-02-20T11:48:10;100036.02;;;8.69;38.43
70690;BME280;58267;51.156;17.044;2023-02-20T11:50:38;100038.43;;;8.96;37.59
70690;BME280;58267;51.156;17.044;2023-02-20T11:52:57;100022.79;;;9.12;37.25
70690;BME280;58267;51.156;17.044;2023-02-20T11:55:23;100007.51;;;8.15;39.29
70690;BME280;58267;51.156;17.044;2023-02-20T11:57:45;100000.13;;;8.59;38.44
70690;BME280;58267;51.156;17.044;2023-02-20T12:00:14;99985.05;;;8.90;38.01
70690;BME280;58267;51.156;17.044;2023-02-20T12:02:35;99976.73;;;10.07;36.20
70690;BME280;58267;51.156;17.044;2023-02-20T12:05:09;99972.14;;;10.56;34.98
70690;BME280;58267;51.156;17.044;2023-02-20T12:07:27;99966.14;;;9.43;36.56
70690;BME280;58267;51.156;17.044;2023-02-20T12:09:53;99952.00;;;9.68;36.19
70690;BME280;58267;51.156;17.044;2023-02-20T12:12:16;99954.47;;;10.48;35.36
70690;BME280;58267;51.156;17.044;2023-02-20T12:14:42;99935.95;;;9.90;36.12
70690;BME280;58267;51.156;17.044;2023-02-20T12:17:12;99931.32;;;8.92;37.56
70690;BME280;58267;51.156;17.044;2023-02-20T12:19:41;99924.31;;;9.32;36.87
70690;BME280;58267;51.156;17.044;2023-02-20T12:22:03;99906.28;;;10.19;35.95
70690;BME280;58267;51.156;17.044;2023-02-20T12:24:37;99905.31;;;8.87;37.86
70690;BME280;58267;51.156;17.044;2023-02-20T12:26:51;99888.06;;;8.86;37.79
70690;BME280;58267;51.156;17.044;2023-02-20T12:29:23;99900.31;;;8.92;37.56
70690;BME280;58267;51.156;17.044;2023-02-20T12:31:49;99895.58;;;8.58;37.90
70690;BME280;58267;51.156;17.044;2023-02-20T12:34:16;99869.37;;;10.56;35.84
70690;BME280;58267;51.156;17.044;2023-02-20T12:36:34;99848.29;;;11.55;34.22
70690;BME280;58267;51.156;17.044;2023-02-20T12:38:57;99854.78;;;11.64;33.70
70690;BME280;58267;51.156;17.044;2023-02-20T12:41:30;99847.85;;;10.69;35.12
70690;BME280;58267;51.156;17.044;2023-02-20T12:43:49;99843.33;;;12.53;33.03
70690;BME280;58267;51.156;17.044;2023-02-20T12:46:15;99834.43;;;11.90;33.87
70690;BME280;58267;51.156;17.044;2023-02-20T12:48:42;99824.10;;;11.02;34.30
70690;BME280;58267;51.156;17.044;2023-02-20T12:51:07;99833.33;;;11.65;33.33
70690;BME280;58267;51.156;17.044;2023-02-20T12:53:34;99830.09;;;12.49;32.50
70690;BME280;58267;51.156;17.044;2023-02-20T12:55:59;99829.84;;;11.72;32.96